createdAt,value
2024-02-27T06:57:53.216Z,1013.49
2024-02-27T06:58:54.277Z,1013.50
2024-02-27T06:59:54.381Z,1013.47
2024-02-27T07:00:54.541Z,1013.51
2024-02-27T07:01:54.526Z,1013.58
2024-02-27T07:02:54.641Z,1013.57
2024-02-27T07:03:54.780Z,1013.56
2024-02-27T07:04:54.808Z,1013.51
2024-02-27T07:05:55.075Z,1013.54
2024-02-27T07:06:55.061Z,1013.47
2024-02-27T07:07:55.040Z,1013.52
2024-02-27T07:08:55.126Z,1013.46
2024-02-27T07:09:55.214Z,1013.49
2024-02-27T07:10:55.317Z,1013.52
2024-02-27T07:11:55.362Z,1013.55
2024-02-27T07:12:55.424Z,1013.54
2024-02-27T07:13:55.613Z,1013.56
2024-02-27T07:14:55.597Z,1013.56
2024-02-27T07:15:55.736Z,1013.59
2024-02-27T07:16:55.776Z,1013.57
2024-02-27T07:17:55.894Z,1013.49
2024-02-27T07:18:56.132Z,1013.56
2024-02-27T07:19:56.021Z,1013.56
2024-02-27T07:20:56.075Z,1013.54
2024-02-27T07:21:56.181Z,1013.64
2024-02-27T07:22:56.228Z,1013.57
2024-02-27T07:23:56.373Z,1013.62
2024-02-27T07:24:56.420Z,1013.60
2024-02-27T07:25:56.530Z,1013.58
2024-02-27T07:26:56.639Z,1013.65
2024-02-27T07:27:56.700Z,1013.63
2024-02-27T07:28:56.756Z,1013.65
2024-02-27T07:29:56.833Z,1013.63
2024-02-27T07:30:56.899Z,1013.60
2024-02-27T07:31:56.963Z,1013.61
2024-02-27T07:32:57.075Z,1013.63
2024-02-27T07:33:57.198Z,1013.55
2024-02-27T07:34:57.260Z,1013.59
2024-02-27T07:35:57.284Z,1013.59
2024-02-27T07:36:57.336Z,1013.59
2024-02-27T07:37:57.453Z,1013.55
2024-02-27T07:38:57.573Z,1013.53
2024-02-27T07:39:57.636Z,1013.56
2024-02-27T07:40:57.694Z,1013.53
2024-02-27T07:41:57.790Z,1013.57
2024-02-27T07:42:57.845Z,1013.55
2024-02-27T07:43:57.979Z,1013.58
2024-02-27T07:44:58.114Z,1013.58
2024-02-27T07:45:58.110Z,1013.60
2024-02-27T07:46:58.181Z,1013.66
2024-02-27T07:47:58.384Z,1013.66
2024-02-27T07:48:58.466Z,1013.69
2024-02-27T07:49:58.486Z,1013.70
2024-02-27T07:50:58.565Z,1013.70
2024-02-27T07:51:58.720Z,1013.73
2024-02-27T07:52:58.714Z,1013.74
2024-02-27T07:53:58.844Z,1013.79
2024-02-27T07:54:58.919Z,1013.79
2024-02-27T07:55:58.986Z,1013.78
2024-02-27T07:56:59.069Z,1013.82
2024-02-27T07:57:59.111Z,1013.85
2024-02-27T07:58:59.173Z,1013.90
2024-02-27T08:00:00.656Z,1013.83
2024-02-27T08:00:59.451Z,1013.84
2024-02-27T08:01:59.486Z,1013.84
2024-02-27T08:02:59.660Z,1013.85
2024-02-27T08:03:59.784Z,1013.85
2024-02-27T08:04:59.804Z,1013.86
2024-02-27T08:05:59.983Z,1013.87
2024-02-27T08:07:00.060Z,1013.89
2024-02-27T08:08:00.071Z,1013.93
2024-02-27T08:09:00.076Z,1013.86
2024-02-27T08:10:00.226Z,1013.83
2024-02-27T08:11:00.274Z,1013.88
2024-02-27T08:12:00.386Z,1013.83
2024-02-27T08:13:00.453Z,1013.82
2024-02-27T08:14:00.503Z,1013.87
2024-02-27T08:15:00.665Z,1013.85
2024-02-27T08:16:00.692Z,1013.90
2024-02-27T08:17:00.736Z,1013.87
2024-02-27T08:18:00.989Z,1013.82
2024-02-27T08:19:01.085Z,1013.80
2024-02-27T08:20:00.965Z,1013.88
2024-02-27T08:21:01.222Z,1013.90
2024-02-27T08:22:01.157Z,1013.89
2024-02-27T08:23:01.209Z,1013.92
2024-02-27T08:24:01.316Z,1013.91
2024-02-27T08:25:01.387Z,1013.94
2024-02-27T08:26:01.448Z,1013.89
2024-02-27T08:27:04.659Z,1013.99
2024-02-27T08:28:01.757Z,1013.95
2024-02-27T08:29:01.694Z,1013.98
2024-02-27T08:30:01.836Z,1013.97
2024-02-27T08:31:02.025Z,1013.96
2024-02-27T08:32:02.002Z,1013.97
2024-02-27T08:33:02.314Z,1014.02
2024-02-27T08:34:02.320Z,1013.98
2024-02-27T08:35:02.409Z,1014.02
2024-02-27T08:36:02.390Z,1014.03
2024-02-27T08:37:02.433Z,1014.06
2024-02-27T08:38:02.524Z,1014.04
2024-02-27T08:39:02.615Z,1014.06
2024-02-27T08:40:02.679Z,1014.08
2024-02-27T08:41:02.781Z,1014.10
2024-02-27T08:42:02.880Z,1014.15
2024-02-27T08:43:02.923Z,1014.18
2024-02-27T08:44:03.012Z,1014.18
2024-02-27T08:45:03.163Z,1014.13
2024-02-27T08:46:03.223Z,1014.17
2024-02-27T08:47:03.301Z,1014.12
2024-02-27T08:48:03.486Z,1014.15
2024-02-27T08:49:03.576Z,1014.19
2024-02-27T08:50:03.530Z,1014.20
2024-02-27T08:51:03.613Z,1014.16
2024-02-27T08:52:05.040Z,1014.19
2024-02-27T08:53:03.811Z,1014.18
2024-02-27T08:54:03.955Z,1014.19
2024-02-27T08:55:03.933Z,1014.19
2024-02-27T08:56:04.050Z,1014.22
2024-02-27T08:57:04.126Z,1014.25
2024-02-27T08:58:04.179Z,1014.18
2024-02-27T08:59:04.239Z,1014.13
2024-02-27T09:00:04.394Z,1014.17
2024-02-27T09:01:04.530Z,1014.08
2024-02-27T09:02:04.511Z,1014.04
2024-02-27T09:03:06.240Z,1014.07
2024-02-27T09:04:04.816Z,1014.04
2024-02-27T09:05:04.735Z,1014.03
2024-02-27T09:06:04.925Z,1014.04
2024-02-27T09:07:04.985Z,1013.96
2024-02-27T09:08:04.993Z,1013.92
2024-02-27T09:09:06.885Z,1013.96
2024-02-27T09:10:05.152Z,1013.99
2024-02-27T09:11:05.282Z,1013.99
2024-02-27T09:12:05.320Z,1013.96
2024-02-27T09:13:06.313Z,1013.91
2024-02-27T09:14:05.457Z,1013.91
2024-02-27T09:15:08.593Z,1013.89
2024-02-27T09:16:05.660Z,1013.89
2024-02-27T09:17:05.736Z,1013.82
2024-02-27T09:18:05.891Z,1013.85
2024-02-27T09:19:05.965Z,1013.85
2024-02-27T09:20:05.969Z,1013.83
2024-02-27T09:21:06.089Z,1013.84
2024-02-27T09:22:06.174Z,1013.84
2024-02-27T09:23:06.213Z,1013.86
2024-02-27T09:24:06.342Z,1013.77
2024-02-27T09:25:06.344Z,1013.72
2024-02-27T09:26:06.443Z,1013.80
2024-02-27T09:27:06.556Z,1013.79
2024-02-27T09:28:06.680Z,1013.73
2024-02-27T09:29:06.653Z,1013.74
2024-02-27T09:30:06.784Z,1013.76
2024-02-27T09:31:10.121Z,1013.78
2024-02-27T09:32:06.943Z,1013.81
2024-02-27T09:33:07.061Z,1013.80
2024-02-27T09:34:07.111Z,1013.83
2024-02-27T09:35:07.180Z,1013.85
2024-02-27T09:36:07.300Z,1013.80
2024-02-27T09:37:07.367Z,1013.76
2024-02-27T09:38:07.399Z,1013.74
2024-02-27T09:39:07.495Z,1013.66
2024-02-27T09:40:07.615Z,1013.66
2024-02-27T09:41:07.650Z,1013.62
2024-02-27T09:42:07.779Z,1013.67
2024-02-27T09:43:07.828Z,1013.67
2024-02-27T09:44:07.878Z,1013.66
2024-02-27T09:45:08.447Z,1013.70
2024-02-27T09:46:08.053Z,1013.74
2024-02-27T09:47:08.240Z,1013.77
2024-02-27T09:48:08.315Z,1013.82
2024-02-27T09:49:08.386Z,1013.82
2024-02-27T09:50:08.530Z,1013.84
2024-02-27T09:51:08.603Z,1013.92
2024-02-27T09:52:08.592Z,1013.91
2024-02-27T09:53:08.680Z,1013.86
2024-02-27T09:54:08.812Z,1013.92
2024-02-27T09:55:08.880Z,1014.00
2024-02-27T09:56:09.006Z,1014.01
2024-02-27T09:57:09.037Z,1014.02
2024-02-27T09:58:09.429Z,1014.03
2024-02-27T09:59:09.209Z,1014.01
2024-02-27T10:00:09.321Z,1014.00
2024-02-27T10:01:09.482Z,1014.02
2024-02-27T10:02:09.619Z,1013.99
2024-02-27T10:03:09.587Z,1014.04
2024-02-27T10:04:09.731Z,1014.00
2024-02-27T10:05:09.753Z,1014.01
2024-02-27T10:06:09.783Z,1014.03
2024-02-27T10:07:09.812Z,1013.99
2024-02-27T10:08:09.883Z,1013.96
2024-02-27T10:09:10.011Z,1013.95
2024-02-27T10:10:10.031Z,1013.96
2024-02-27T10:11:10.131Z,1013.95
2024-02-27T10:12:10.200Z,1014.02
2024-02-27T10:13:10.249Z,1014.00
2024-02-27T10:14:10.489Z,1014.04
2024-02-27T10:15:11.419Z,1014.07
2024-02-27T10:16:10.460Z,1014.07
2024-02-27T10:17:10.529Z,1014.17
2024-02-27T10:18:10.719Z,1014.09
2024-02-27T10:19:10.834Z,1014.12
2024-02-27T10:20:10.867Z,1014.19
2024-02-27T10:21:10.909Z,1014.19
2024-02-27T10:22:10.935Z,1014.17
2024-02-27T10:23:11.014Z,1014.15
2024-02-27T10:24:11.114Z,1014.17
2024-02-27T10:25:11.162Z,1014.16
2024-02-27T10:26:11.232Z,1014.16
2024-02-27T10:27:11.349Z,1014.17
2024-02-27T10:28:11.353Z,1014.16
2024-02-27T10:29:11.437Z,1014.17
2024-02-27T10:30:11.554Z,1014.18
2024-02-27T10:31:11.621Z,1014.16
2024-02-27T10:32:11.657Z,1014.13
2024-02-27T10:33:11.859Z,1014.08
2024-02-27T10:34:11.905Z,1014.06
2024-02-27T10:35:12.339Z,1014.05
2024-02-27T10:36:12.073Z,1014.07
2024-02-27T10:37:12.216Z,1014.11
2024-02-27T10:38:12.110Z,1014.03
2024-02-27T10:39:12.181Z,1014.02
2024-02-27T10:40:12.236Z,1014.05
2024-02-27T10:41:12.336Z,1014.07
2024-02-27T10:42:12.468Z,1014.08
2024-02-27T10:43:12.492Z,1014.12
2024-02-27T10:44:14.641Z,1014.16
2024-02-27T10:45:13.073Z,1014.14
2024-02-27T10:46:13.950Z,1014.09
2024-02-27T10:47:12.826Z,1014.10
2024-02-27T10:48:12.929Z,1014.11
2024-02-27T10:49:14.163Z,1014.12
2024-02-27T10:50:13.219Z,1014.08
2024-02-27T10:51:13.174Z,1014.12
2024-02-27T10:52:13.197Z,1014.08
2024-02-27T10:53:13.274Z,1014.11
2024-02-27T10:54:13.385Z,1014.10
2024-02-27T10:55:13.461Z,1014.08
2024-02-27T10:56:13.565Z,1014.10
2024-02-27T10:57:13.640Z,1014.13
2024-02-27T10:58:13.667Z,1014.13
2024-02-27T10:59:13.870Z,1014.21
2024-02-27T11:00:13.894Z,1014.19
2024-02-27T11:01:14.118Z,1014.23
2024-02-27T11:02:14.034Z,1014.24
2024-02-27T11:03:14.139Z,1014.20
2024-02-27T11:04:14.157Z,1014.21
2024-02-27T11:05:14.323Z,1014.18
2024-02-27T11:06:14.396Z,1014.16
2024-02-27T11:07:14.463Z,1014.11
2024-02-27T11:08:14.479Z,1014.13
2024-02-27T11:09:14.587Z,1014.10
2024-02-27T11:10:14.644Z,1014.10
2024-02-27T11:11:15.155Z,1014.13
2024-02-27T11:12:15.113Z,1014.15
2024-02-27T11:13:14.886Z,1014.16
2024-02-27T11:14:14.959Z,1014.14
2024-02-27T11:15:15.093Z,1014.09
2024-02-27T11:16:15.148Z,1014.05
2024-02-27T11:17:15.413Z,1014.01
2024-02-27T11:18:15.388Z,1013.99
2024-02-27T11:19:15.503Z,1014.02
2024-02-27T11:20:15.605Z,1013.93
2024-02-27T11:21:15.552Z,1014.01
2024-02-27T11:22:15.607Z,1014.05
2024-02-27T11:23:15.697Z,1014.07
2024-02-27T11:24:15.835Z,1014.02
2024-02-27T11:25:15.852Z,1013.95
2024-02-27T11:26:15.950Z,1013.89
2024-02-27T11:27:16.054Z,1013.83
2024-02-27T11:28:16.083Z,1013.84
2024-02-27T11:29:16.165Z,1013.81
2024-02-27T11:30:16.283Z,1013.82
2024-02-27T11:31:16.323Z,1013.84
2024-02-27T11:32:16.411Z,1013.87
2024-02-27T11:33:16.569Z,1013.82
2024-02-27T11:34:16.632Z,1013.82
2024-02-27T11:35:16.652Z,1013.85
2024-02-27T11:36:16.729Z,1013.83
2024-02-27T11:37:16.767Z,1013.85
2024-02-27T11:38:16.848Z,1013.80
2024-02-27T11:39:17.023Z,1013.74
2024-02-27T11:40:17.006Z,1013.75
2024-02-27T11:41:17.061Z,1013.73
2024-02-27T11:42:17.183Z,1013.76
2024-02-27T11:43:17.336Z,1013.72
2024-02-27T11:44:17.312Z,1013.73
2024-02-27T11:45:17.452Z,1013.67
2024-02-27T11:46:17.437Z,1013.69
2024-02-27T11:47:17.507Z,1013.68
2024-02-27T11:48:17.648Z,1013.66
2024-02-27T11:49:17.755Z,1013.68
2024-02-27T11:50:18.726Z,1013.67
2024-02-27T11:51:17.969Z,1013.65
2024-02-27T11:52:17.950Z,1013.63
2024-02-27T11:53:18.169Z,1013.63
2024-02-27T11:54:18.132Z,1013.57
2024-02-27T11:55:18.197Z,1013.54
2024-02-27T11:56:18.280Z,1013.58
2024-02-27T11:57:18.386Z,1013.55
2024-02-27T11:58:18.411Z,1013.55
2024-02-27T11:59:18.514Z,1013.48
2024-02-27T12:00:18.604Z,1013.47
2024-02-27T12:01:18.650Z,1013.47
2024-02-27T12:02:18.728Z,1013.47
2024-02-27T12:03:18.833Z,1013.52
2024-02-27T12:04:18.933Z,1013.45
2024-02-27T12:05:18.971Z,1013.44
2024-02-27T12:06:19.270Z,1013.42
2024-02-27T12:07:19.140Z,1013.37
2024-02-27T12:08:19.283Z,1013.40
2024-02-27T12:09:19.353Z,1013.49
2024-02-27T12:10:19.372Z,1013.46
2024-02-27T12:11:19.464Z,1013.50
2024-02-27T12:12:19.623Z,1013.51
2024-02-27T12:13:19.638Z,1013.49
2024-02-27T12:14:19.728Z,1013.49
2024-02-27T12:15:19.808Z,1013.43
2024-02-27T12:16:19.864Z,1013.41
2024-02-27T12:17:19.958Z,1013.48
2024-02-27T12:18:20.133Z,1013.49
2024-02-27T12:19:20.156Z,1013.46
2024-02-27T12:20:20.186Z,1013.45
2024-02-27T12:21:20.257Z,1013.47
2024-02-27T12:22:20.330Z,1013.45
2024-02-27T12:23:20.383Z,1013.44
2024-02-27T12:24:20.711Z,1013.42
2024-02-27T12:25:20.593Z,1013.42
2024-02-27T12:26:20.670Z,1013.42
2024-02-27T12:27:20.790Z,1013.41
2024-02-27T12:28:20.862Z,1013.32
2024-02-27T12:29:20.929Z,1013.35
2024-02-27T12:30:22.702Z,1013.32
2024-02-27T12:31:21.089Z,1013.29
2024-02-27T12:32:21.158Z,1013.33
2024-02-27T12:33:21.298Z,1013.35
2024-02-27T12:34:21.348Z,1013.28
2024-02-27T12:35:21.363Z,1013.29
2024-02-27T12:36:21.468Z,1013.27
2024-02-27T12:37:21.532Z,1013.31
2024-02-27T12:38:21.595Z,1013.35
2024-02-27T12:39:21.702Z,1013.32
2024-02-27T12:40:21.761Z,1013.30
2024-02-27T12:41:21.837Z,1013.32
2024-02-27T12:42:21.993Z,1013.22
2024-02-27T12:43:21.992Z,1013.29
2024-02-27T12:44:22.106Z,1013.29
2024-02-27T12:45:22.192Z,1013.30
2024-02-27T12:46:25.342Z,1013.23
2024-02-27T12:47:22.440Z,1013.20
2024-02-27T12:48:22.749Z,1013.19
2024-02-27T12:49:22.608Z,1013.18
2024-02-27T12:50:22.561Z,1013.12
2024-02-27T12:51:22.688Z,1013.14
2024-02-27T12:52:22.744Z,1013.08
2024-02-27T12:53:22.966Z,1013.09
2024-02-27T12:54:23.105Z,1013.11
2024-02-27T12:55:22.978Z,1013.10
2024-02-27T12:56:23.029Z,1013.06
2024-02-27T12:57:23.205Z,1013.13
2024-02-27T12:58:23.226Z,1013.12
2024-02-27T12:59:23.294Z,1013.08
2024-02-27T13:00:23.431Z,1013.14
2024-02-27T13:01:23.497Z,1013.11
2024-02-27T13:02:23.556Z,1013.10
2024-02-27T13:03:24.313Z,1013.08
2024-02-27T13:04:23.716Z,1013.09
2024-02-27T13:05:23.798Z,1013.04
2024-02-27T13:06:24.035Z,1013.04
2024-02-27T13:07:24.097Z,1013.06
2024-02-27T13:08:24.017Z,1013.00
2024-02-27T13:09:24.143Z,1012.98
2024-02-27T13:10:24.319Z,1013.00
2024-02-27T13:11:24.348Z,1012.98
2024-02-27T13:12:24.399Z,1012.98
2024-02-27T13:13:24.477Z,1012.96
2024-02-27T13:14:24.532Z,1012.98
2024-02-27T13:15:24.614Z,1013.00
2024-02-27T13:16:24.984Z,1012.96
2024-02-27T13:17:24.810Z,1012.95
2024-02-27T13:18:25.031Z,1012.96
2024-02-27T13:19:25.054Z,1012.92
2024-02-27T13:20:25.052Z,1012.96
2024-02-27T13:21:25.163Z,1012.97
2024-02-27T13:22:25.239Z,1013.01
2024-02-27T13:23:26.934Z,1012.97
2024-02-27T13:24:25.438Z,1013.01
2024-02-27T13:25:25.492Z,1013.01
2024-02-27T13:26:25.589Z,1013.00
2024-02-27T13:27:25.698Z,1013.02
2024-02-27T13:28:25.735Z,1013.05
2024-02-27T13:29:25.846Z,1013.05
2024-02-27T13:30:25.943Z,1013.04
2024-02-27T13:31:25.966Z,1013.02
2024-02-27T13:32:26.127Z,1013.01
2024-02-27T13:33:26.563Z,1012.98
2024-02-27T13:34:26.323Z,1012.99
2024-02-27T13:35:26.421Z,1013.03
2024-02-27T13:36:26.411Z,1013.00
2024-02-27T13:37:26.490Z,1013.03
2024-02-27T13:38:26.601Z,1013.00
2024-02-27T13:39:26.748Z,1012.98
2024-02-27T13:40:26.771Z,1013.02
2024-02-27T13:41:26.859Z,1012.98
2024-02-27T13:42:26.942Z,1012.95
2024-02-27T13:43:27.045Z,1012.92
2024-02-27T13:44:27.114Z,1012.92
2024-02-27T13:45:27.236Z,1012.91
2024-02-27T13:46:27.286Z,1012.86
2024-02-27T13:47:27.400Z,1012.81
2024-02-27T13:48:27.543Z,1012.90
2024-02-27T13:49:27.565Z,1012.88
2024-02-27T13:50:27.643Z,1012.86
2024-02-27T13:51:27.784Z,1012.86
2024-02-27T13:52:27.798Z,1012.85
2024-02-27T13:53:27.900Z,1012.87
2024-02-27T13:54:27.990Z,1012.86
2024-02-27T13:55:28.049Z,1012.84
2024-02-27T13:56:28.161Z,1012.85
2024-02-27T13:57:28.276Z,1012.82
2024-02-27T13:58:28.891Z,1012.82
2024-02-27T13:59:28.457Z,1012.80
2024-02-27T14:00:28.552Z,1012.85
2024-02-27T14:01:28.665Z,1012.87
2024-02-27T14:02:28.684Z,1012.79
2024-02-27T14:03:28.849Z,1012.82
2024-02-27T14:04:30.324Z,1012.79
2024-02-27T14:05:29.041Z,1012.68
2024-02-27T14:06:29.088Z,1012.64
2024-02-27T14:07:29.192Z,1012.68
2024-02-27T14:08:29.198Z,1012.67
2024-02-27T14:09:29.343Z,1012.58
2024-02-27T14:10:29.413Z,1012.59
2024-02-27T14:11:29.526Z,1012.57
2024-02-27T14:12:29.602Z,1012.58
2024-02-27T14:13:29.617Z,1012.62
2024-02-27T14:14:29.694Z,1012.52
2024-02-27T14:15:29.853Z,1012.53
2024-02-27T14:16:29.860Z,1012.47
2024-02-27T14:17:29.962Z,1012.37
2024-02-27T14:18:30.119Z,1012.34
2024-02-27T14:19:30.243Z,1012.38
2024-02-27T14:20:30.219Z,1012.40
2024-02-27T14:21:30.324Z,1012.37
2024-02-27T14:22:30.383Z,1012.37
2024-02-27T14:23:30.447Z,1012.36
2024-02-27T14:24:30.535Z,1012.39
2024-02-27T14:25:30.614Z,1012.36
2024-02-27T14:26:30.669Z,1012.35
2024-02-27T14:27:30.737Z,1012.39
2024-02-27T14:28:30.816Z,1012.35
2024-02-27T14:29:30.893Z,1012.35
2024-02-27T14:30:31.010Z,1012.36
2024-02-27T14:31:31.058Z,1012.38
2024-02-27T14:32:31.193Z,1012.38
2024-02-27T14:33:31.326Z,1012.39
2024-02-27T14:34:31.486Z,1012.36
2024-02-27T14:35:31.532Z,1012.34
2024-02-27T14:36:31.533Z,1012.38
2024-02-27T14:37:31.594Z,1012.37
2024-02-27T14:38:31.667Z,1012.33
2024-02-27T14:39:31.834Z,1012.33
2024-02-27T14:40:31.830Z,1012.31
2024-02-27T14:41:31.897Z,1012.36
2024-02-27T14:42:32.038Z,1012.33
2024-02-27T14:43:32.058Z,1012.37
2024-02-27T14:44:32.168Z,1012.33
2024-02-27T14:45:32.304Z,1012.38
2024-02-27T14:46:32.315Z,1012.38
2024-02-27T14:47:32.435Z,1012.41
2024-02-27T14:48:32.545Z,1012.37
2024-02-27T14:49:32.670Z,1012.41
2024-02-27T14:50:32.706Z,1012.40
2024-02-27T14:51:32.838Z,1012.43
2024-02-27T14:52:32.878Z,1012.38
2024-02-27T14:53:32.921Z,1012.42
2024-02-27T14:54:33.053Z,1012.46
2024-02-27T14:55:33.125Z,1012.44
2024-02-27T14:56:33.191Z,1012.45
2024-02-27T14:57:33.300Z,1012.50
2024-02-27T14:58:33.373Z,1012.53
2024-02-27T14:59:33.404Z,1012.58
2024-02-27T15:00:33.621Z,1012.57
2024-02-27T15:01:36.581Z,1012.56
2024-02-27T15:02:33.668Z,1012.57
2024-02-27T15:03:33.790Z,1012.56
2024-02-27T15:04:33.842Z,1012.51
2024-02-27T15:05:33.967Z,1012.59
2024-02-27T15:06:34.024Z,1012.55
2024-02-27T15:07:34.103Z,1012.48
2024-02-27T15:08:34.120Z,1012.54
2024-02-27T15:09:34.234Z,1012.54
2024-02-27T15:10:34.269Z,1012.49
2024-02-27T15:11:34.371Z,1012.55
2024-02-27T15:12:34.435Z,1012.57
2024-02-27T15:13:34.491Z,1012.56
2024-02-27T15:14:34.546Z,1012.52
2024-02-27T15:15:34.745Z,1012.58
2024-02-27T15:16:34.732Z,1012.59
2024-02-27T15:17:34.848Z,1012.59
2024-02-27T15:18:35.031Z,1012.60
2024-02-27T15:19:35.250Z,1012.64
2024-02-27T15:20:35.085Z,1012.64
2024-02-27T15:21:35.218Z,1012.63
2024-02-27T15:22:35.249Z,1012.64
2024-02-27T15:23:35.345Z,1012.65
2024-02-27T15:24:35.425Z,1012.63
2024-02-27T15:25:35.492Z,1012.57
2024-02-27T15:26:35.597Z,1012.57
2024-02-27T15:27:35.714Z,1012.64
2024-02-27T15:28:35.807Z,1012.55
2024-02-27T15:29:35.859Z,1012.60
2024-02-27T15:30:36.019Z,1012.55
2024-02-27T15:31:36.008Z,1012.57
2024-02-27T15:32:36.107Z,1012.60
2024-02-27T15:33:36.222Z,1012.62
2024-02-27T15:34:36.490Z,1012.60
2024-02-27T15:35:36.849Z,1012.67
2024-02-27T15:36:36.465Z,1012.68
2024-02-27T15:37:36.495Z,1012.70
2024-02-27T15:38:36.611Z,1012.65
2024-02-27T15:39:36.767Z,1012.69
2024-02-27T15:40:36.784Z,1012.66
2024-02-27T15:41:36.850Z,1012.66
2024-02-27T15:42:36.984Z,1012.69
2024-02-27T15:43:36.970Z,1012.67
2024-02-27T15:44:37.081Z,1012.68
2024-02-27T15:45:37.189Z,1012.63
2024-02-27T15:46:37.212Z,1012.64
2024-02-27T15:47:37.326Z,1012.66
2024-02-27T15:48:37.638Z,1012.66
2024-02-27T15:49:37.725Z,1012.63
2024-02-27T15:50:37.571Z,1012.66
2024-02-27T15:51:37.667Z,1012.68
2024-02-27T15:52:37.726Z,1012.66
2024-02-27T15:53:37.791Z,1012.70
2024-02-27T15:54:37.959Z,1012.60
2024-02-27T15:55:37.937Z,1012.68
2024-02-27T15:56:38.039Z,1012.68
2024-02-27T15:57:38.132Z,1012.63
2024-02-27T15:58:38.214Z,1012.63
2024-02-27T15:59:38.260Z,1012.69
2024-02-27T16:00:38.420Z,1012.67
2024-02-27T16:01:38.502Z,1012.70
2024-02-27T16:02:38.522Z,1012.67
2024-02-27T16:03:38.798Z,1012.62
2024-02-27T16:04:38.810Z,1012.59
2024-02-27T16:05:38.837Z,1012.59
2024-02-27T16:06:38.968Z,1012.59
2024-02-27T16:07:38.973Z,1012.61
2024-02-27T16:08:39.046Z,1012.60
2024-02-27T16:09:39.221Z,1012.58
2024-02-27T16:10:39.202Z,1012.60
2024-02-27T16:11:39.277Z,1012.57
2024-02-27T16:12:40.235Z,1012.62
2024-02-27T16:13:39.429Z,1012.64
2024-02-27T16:14:39.548Z,1012.67
2024-02-27T16:15:39.663Z,1012.67
2024-02-27T16:16:39.683Z,1012.65
2024-02-27T16:17:39.762Z,1012.66
2024-02-27T16:18:39.945Z,1012.68
2024-02-27T16:19:40.156Z,1012.67
2024-02-27T16:20:39.977Z,1012.71
2024-02-27T16:21:40.070Z,1012.72
2024-02-27T16:22:40.135Z,1012.67
2024-02-27T16:23:40.208Z,1012.75
2024-02-27T16:24:40.369Z,1012.68
2024-02-27T16:25:40.382Z,1012.73
2024-02-27T16:26:40.450Z,1012.70
2024-02-27T16:27:40.546Z,1012.67
2024-02-27T16:28:40.664Z,1012.75
2024-02-27T16:29:40.706Z,1012.75
2024-02-27T16:30:40.826Z,1012.78
2024-02-27T16:31:40.852Z,1012.77
2024-02-27T16:32:41.000Z,1012.82
2024-02-27T16:33:41.209Z,1012.87
2024-02-27T16:34:41.296Z,1012.85
2024-02-27T16:35:41.189Z,1012.86
2024-02-27T16:36:41.321Z,1012.88
2024-02-27T16:37:41.386Z,1012.94
2024-02-27T16:38:41.469Z,1012.90
2024-02-27T16:39:41.593Z,1012.94
2024-02-27T16:40:41.635Z,1012.94
2024-02-27T16:41:44.072Z,1012.95
2024-02-27T16:42:41.788Z,1013.00
2024-02-27T16:43:41.841Z,1013.06
2024-02-27T16:44:41.921Z,1013.06
2024-02-27T16:45:42.043Z,1013.08
2024-02-27T16:46:42.044Z,1013.08
2024-02-27T16:47:42.144Z,1013.11
2024-02-27T16:48:42.270Z,1013.10
2024-02-27T16:49:42.455Z,1013.17
2024-02-27T16:50:42.385Z,1013.19
2024-02-27T16:51:42.599Z,1013.24
2024-02-27T16:52:42.559Z,1013.21
2024-02-27T16:53:42.613Z,1013.17
2024-02-27T16:54:42.799Z,1013.23
2024-02-27T16:55:42.829Z,1013.22
2024-02-27T16:56:42.930Z,1013.23
